sensor_id;sensor_type;location;lat;lon;timestamp;P1;durP1;ratioP1;P2;durP2;ratioP2
66270;SDS011;53063;39.614;8.814;2022-12-18T00:00:54;15.70;;;9.35;;
66270;SDS011;53063;39.614;8.814;2022-12-18T00:03:20;20.23;;;8.73;;
66270;SDS011;53063;39.614;8.814;2022-12-18T00:05:47;12.63;;;7.20;;
66270;SDS011;53063;39.614;8.814;2022-12-18T00:08:14;13.73;;;7.18;;
66270;SDS011;53063;39.614;8.814;2022-12-18T00:10:40;16.05;;;6.70;;
66270;SDS011;53063;39.614;8.814;2022-12-18T00:13:06;11.77;;;6.40;;
66270;SDS011;53063;39.614;8.814;2022-12-18T00:15:33;13.35;;;6.85;;
66270;SDS011;53063;39.614;8.814;2022-12-18T00:18:00;14.30;;;7.07;;
66270;SDS011;53063;39.614;8.814;2022-12-18T00:20:26;16.05;;;6.43;;
66270;SDS011;53063;39.614;8.814;2022-12-18T00:22:52;14.07;;;6.63;;
66270;SDS011;53063;39.614;8.814;2022-12-18T00:25:18;9.85;;;5.30;;
66270;SDS011;53063;39.614;8.814;2022-12-18T00:27:44;12.85;;;5.68;;
66270;SDS011;53063;39.614;8.814;2022-12-18T00:30:10;12.82;;;4.82;;
66270;SDS011;53063;39.614;8.814;2022-12-18T00:32:37;9.55;;;4.60;;
66270;SDS011;53063;39.614;8.814;2022-12-18T00:35:03;8.95;;;4.38;;
66270;SDS011;53063;39.614;8.814;2022-12-18T00:37:30;7.05;;;3.70;;
66270;SDS011;53063;39.614;8.814;2022-12-18T00:39:56;10.20;;;4.50;;
66270;SDS011;53063;39.614;8.814;2022-12-18T00:42:21;15.75;;;4.70;;
66270;SDS011;53063;39.614;8.814;2022-12-18T00:45:06;8.48;;;4.70;;
66270;SDS011;53063;39.614;8.814;2022-12-18T00:47:32;9.05;;;4.75;;
66270;SDS011;53063;39.614;8.814;2022-12-18T00:49:58;11.68;;;4.50;;
66270;SDS011;53063;39.614;8.814;2022-12-18T00:52:24;13.02;;;3.83;;
66270;SDS011;53063;39.614;8.814;2022-12-18T00:54:49;8.85;;;3.63;;
66270;SDS011;53063;39.614;8.814;2022-12-18T00:57:15;7.05;;;3.42;;
66270;SDS011;53063;39.614;8.814;2022-12-18T00:59:42;7.07;;;3.63;;
66270;SDS011;53063;39.614;8.814;2022-12-18T01:02:08;6.40;;;3.20;;
66270;SDS011;53063;39.614;8.814;2022-12-18T01:04:34;6.65;;;3.25;;
66270;SDS011;53063;39.614;8.814;2022-12-18T01:07:00;9.35;;;5.88;;
66270;SDS011;53063;39.614;8.814;2022-12-18T01:09:26;10.52;;;5.40;;
66270;SDS011;53063;39.614;8.814;2022-12-18T01:11:52;10.25;;;6.13;;
66270;SDS011;53063;39.614;8.814;2022-12-18T01:14:18;10.20;;;5.30;;
66270;SDS011;53063;39.614;8.814;2022-12-18T01:16:43;15.15;;;5.82;;
66270;SDS011;53063;39.614;8.814;2022-12-18T01:19:09;10.45;;;5.65;;
66270;SDS011;53063;39.614;8.814;2022-12-18T01:21:35;12.43;;;6.28;;
66270;SDS011;53063;39.614;8.814;2022-12-18T01:24:02;17.33;;;7.85;;
66270;SDS011;53063;39.614;8.814;2022-12-18T01:26:29;22.13;;;11.98;;
66270;SDS011;53063;39.614;8.814;2022-12-18T01:28:56;25.42;;;12.35;;
66270;SDS011;53063;39.614;8.814;2022-12-18T01:33:49;23.02;;;9.00;;
66270;SDS011;53063;39.614;8.814;2022-12-18T01:36:24;19.10;;;9.48;;
66270;SDS011;53063;39.614;8.814;2022-12-18T01:38:51;14.25;;;6.53;;
66270;SDS011;53063;39.614;8.814;2022-12-18T01:41:19;15.15;;;6.65;;
66270;SDS011;53063;39.614;8.814;2022-12-18T01:43:57;9.90;;;4.78;;
66270;SDS011;53063;39.614;8.814;2022-12-18T01:46:23;12.77;;;7.97;;
66270;SDS011;53063;39.614;8.814;2022-12-18T01:48:52;13.93;;;8.15;;
66270;SDS011;53063;39.614;8.814;2022-12-18T01:51:23;11.77;;;5.80;;
66270;SDS011;53063;39.614;8.814;2022-12-18T01:53:49;12.65;;;5.90;;
66270;SDS011;53063;39.614;8.814;2022-12-18T01:56:16;9.77;;;5.32;;
66270;SDS011;53063;39.614;8.814;2022-12-18T01:58:54;10.68;;;4.75;;
66270;SDS011;53063;39.614;8.814;2022-12-18T02:01:25;8.88;;;4.85;;
66270;SDS011;53063;39.614;8.814;2022-12-18T02:03:52;8.90;;;4.50;;
66270;SDS011;53063;39.614;8.814;2022-12-18T02:06:27;13.50;;;5.68;;
66270;SDS011;53063;39.614;8.814;2022-12-18T02:11:36;6.40;;;4.30;;
66270;SDS011;53063;39.614;8.814;2022-12-18T02:14:17;12.02;;;5.13;;
66270;SDS011;53063;39.614;8.814;2022-12-18T02:16:50;7.60;;;4.57;;
66270;SDS011;53063;39.614;8.814;2022-12-18T02:24:49;5.80;;;3.90;;
66270;SDS011;53063;39.614;8.814;2022-12-18T02:27:25;8.00;;;3.70;;
66270;SDS011;53063;39.614;8.814;2022-12-18T02:29:55;7.00;;;3.58;;
66270;SDS011;53063;39.614;8.814;2022-12-18T02:32:27;8.75;;;3.95;;
66270;SDS011;53063;39.614;8.814;2022-12-18T02:34:59;8.98;;;3.03;;
66270;SDS011;53063;39.614;8.814;2022-12-18T02:37:28;6.40;;;2.60;;
66270;SDS011;53063;39.614;8.814;2022-12-18T02:39:58;7.20;;;3.28;;
66270;SDS011;53063;39.614;8.814;2022-12-18T02:42:25;7.15;;;3.42;;
66270;SDS011;53063;39.614;8.814;2022-12-18T02:44:53;6.07;;;3.33;;
66270;SDS011;53063;39.614;8.814;2022-12-18T02:47:24;8.27;;;3.92;;
66270;SDS011;53063;39.614;8.814;2022-12-18T02:53:13;7.68;;;3.42;;
66270;SDS011;53063;39.614;8.814;2022-12-18T02:56:07;3.55;;;2.38;;
66270;SDS011;53063;39.614;8.814;2022-12-18T02:59:13;4.27;;;2.60;;
66270;SDS011;53063;39.614;8.814;2022-12-18T03:01:54;4.90;;;2.38;;
66270;SDS011;53063;39.614;8.814;2022-12-18T03:07:02;5.25;;;2.50;;
66270;SDS011;53063;39.614;8.814;2022-12-18T03:09:33;5.57;;;2.50;;
66270;SDS011;53063;39.614;8.814;2022-12-18T03:12:11;5.03;;;2.60;;
66270;SDS011;53063;39.614;8.814;2022-12-18T03:14:50;3.72;;;2.17;;
66270;SDS011;53063;39.614;8.814;2022-12-18T03:17:20;4.53;;;2.40;;
66270;SDS011;53063;39.614;8.814;2022-12-18T03:19:51;4.75;;;1.83;;
66270;SDS011;53063;39.614;8.814;2022-12-18T03:22:19;2.25;;;1.80;;
66270;SDS011;53063;39.614;8.814;2022-12-18T03:24:50;4.40;;;1.75;;
66270;SDS011;53063;39.614;8.814;2022-12-18T03:27:18;3.55;;;1.80;;
66270;SDS011;53063;39.614;8.814;2022-12-18T03:29:51;3.80;;;1.85;;
66270;SDS011;53063;39.614;8.814;2022-12-18T03:35:11;5.80;;;2.35;;
66270;SDS011;53063;39.614;8.814;2022-12-18T03:37:42;9.48;;;3.05;;
66270;SDS011;53063;39.614;8.814;2022-12-18T03:40:08;4.93;;;2.08;;
66270;SDS011;53063;39.614;8.814;2022-12-18T03:45:18;5.53;;;1.67;;
66270;SDS011;53063;39.614;8.814;2022-12-18T03:48:01;3.17;;;2.00;;
66270;SDS011;53063;39.614;8.814;2022-12-18T03:53:41;6.87;;;2.50;;
66270;SDS011;53063;39.614;8.814;2022-12-18T03:56:25;3.78;;;2.30;;
66270;SDS011;53063;39.614;8.814;2022-12-18T03:58:58;3.95;;;1.77;;
66270;SDS011;53063;39.614;8.814;2022-12-18T04:01:30;7.07;;;1.80;;
66270;SDS011;53063;39.614;8.814;2022-12-18T04:04:01;3.15;;;1.80;;
66270;SDS011;53063;39.614;8.814;2022-12-18T04:06:32;4.10;;;1.90;;
66270;SDS011;53063;39.614;8.814;2022-12-18T04:09:02;2.15;;;1.40;;
66270;SDS011;53063;39.614;8.814;2022-12-18T04:11:32;2.40;;;1.90;;
66270;SDS011;53063;39.614;8.814;2022-12-18T04:14:00;2.97;;;2.33;;
66270;SDS011;53063;39.614;8.814;2022-12-18T04:16:26;5.68;;;2.00;;
66270;SDS011;53063;39.614;8.814;2022-12-18T04:18:56;3.40;;;1.90;;
66270;SDS011;53063;39.614;8.814;2022-12-18T04:21:24;6.18;;;1.90;;
66270;SDS011;53063;39.614;8.814;2022-12-18T04:23:51;4.68;;;2.08;;
66270;SDS011;53063;39.614;8.814;2022-12-18T04:26:20;2.60;;;1.60;;
66270;SDS011;53063;39.614;8.814;2022-12-18T04:28:56;3.80;;;1.73;;
66270;SDS011;53063;39.614;8.814;2022-12-18T04:31:23;4.18;;;2.15;;
66270;SDS011;53063;39.614;8.814;2022-12-18T04:33:49;3.70;;;2.03;;
66270;SDS011;53063;39.614;8.814;2022-12-18T04:36:16;4.18;;;1.77;;
66270;SDS011;53063;39.614;8.814;2022-12-18T04:38:44;3.00;;;1.83;;
66270;SDS011;53063;39.614;8.814;2022-12-18T04:41:13;5.65;;;1.80;;
66270;SDS011;53063;39.614;8.814;2022-12-18T04:43:41;3.72;;;1.63;;
66270;SDS011;53063;39.614;8.814;2022-12-18T04:46:07;3.50;;;2.45;;
66270;SDS011;53063;39.614;8.814;2022-12-18T04:48:33;5.78;;;2.45;;
66270;SDS011;53063;39.614;8.814;2022-12-18T04:51:01;5.25;;;2.47;;
66270;SDS011;53063;39.614;8.814;2022-12-18T04:53:27;5.53;;;2.38;;
66270;SDS011;53063;39.614;8.814;2022-12-18T04:56:10;5.88;;;2.13;;
66270;SDS011;53063;39.614;8.814;2022-12-18T04:58:40;5.93;;;2.50;;
66270;SDS011;53063;39.614;8.814;2022-12-18T05:01:08;3.60;;;2.28;;
66270;SDS011;53063;39.614;8.814;2022-12-18T05:03:35;6.00;;;2.88;;
66270;SDS011;53063;39.614;8.814;2022-12-18T05:06:02;7.85;;;2.63;;
66270;SDS011;53063;39.614;8.814;2022-12-18T05:08:28;5.93;;;2.53;;
66270;SDS011;53063;39.614;8.814;2022-12-18T05:11:01;5.47;;;2.38;;
66270;SDS011;53063;39.614;8.814;2022-12-18T05:13:30;6.03;;;2.00;;
66270;SDS011;53063;39.614;8.814;2022-12-18T05:15:56;3.60;;;2.40;;
66270;SDS011;53063;39.614;8.814;2022-12-18T05:18:22;4.10;;;2.80;;
66270;SDS011;53063;39.614;8.814;2022-12-18T05:20:52;2.95;;;1.90;;
66270;SDS011;53063;39.614;8.814;2022-12-18T05:23:19;5.38;;;2.13;;
66270;SDS011;53063;39.614;8.814;2022-12-18T05:25:50;3.03;;;1.85;;
66270;SDS011;53063;39.614;8.814;2022-12-18T05:28:17;5.45;;;2.05;;
66270;SDS011;53063;39.614;8.814;2022-12-18T05:30:47;5.53;;;2.30;;
66270;SDS011;53063;39.614;8.814;2022-12-18T05:33:14;5.13;;;2.17;;
66270;SDS011;53063;39.614;8.814;2022-12-18T05:35:40;3.40;;;1.77;;
66270;SDS011;53063;39.614;8.814;2022-12-18T05:38:06;4.88;;;1.70;;
66270;SDS011;53063;39.614;8.814;2022-12-18T05:40:32;4.20;;;1.75;;
66270;SDS011;53063;39.614;8.814;2022-12-18T05:42:57;3.00;;;1.83;;
66270;SDS011;53063;39.614;8.814;2022-12-18T05:45:23;4.13;;;2.30;;
66270;SDS011;53063;39.614;8.814;2022-12-18T05:47:49;3.35;;;1.80;;
66270;SDS011;53063;39.614;8.814;2022-12-18T05:50:15;3.53;;;1.75;;
66270;SDS011;53063;39.614;8.814;2022-12-18T05:52:41;2.85;;;1.67;;
66270;SDS011;53063;39.614;8.814;2022-12-18T05:55:07;3.20;;;1.75;;
66270;SDS011;53063;39.614;8.814;2022-12-18T05:57:33;2.80;;;1.80;;
66270;SDS011;53063;39.614;8.814;2022-12-18T05:59:59;2.72;;;1.60;;
66270;SDS011;53063;39.614;8.814;2022-12-18T06:02:25;7.05;;;2.15;;
66270;SDS011;53063;39.614;8.814;2022-12-18T06:04:50;3.53;;;1.63;;
66270;SDS011;53063;39.614;8.814;2022-12-18T06:07:16;3.40;;;2.00;;
66270;SDS011;53063;39.614;8.814;2022-12-18T06:09:42;4.43;;;1.80;;
66270;SDS011;53063;39.614;8.814;2022-12-18T06:12:08;3.33;;;2.00;;
66270;SDS011;53063;39.614;8.814;2022-12-18T06:14:34;3.30;;;1.63;;
66270;SDS011;53063;39.614;8.814;2022-12-18T06:17:00;5.00;;;1.60;;
66270;SDS011;53063;39.614;8.814;2022-12-18T06:19:26;4.78;;;2.05;;
66270;SDS011;53063;39.614;8.814;2022-12-18T06:21:52;3.13;;;2.35;;
66270;SDS011;53063;39.614;8.814;2022-12-18T06:24:18;5.68;;;2.00;;
66270;SDS011;53063;39.614;8.814;2022-12-18T06:26:44;3.50;;;2.13;;
66270;SDS011;53063;39.614;8.814;2022-12-18T06:29:10;3.58;;;2.42;;
66270;SDS011;53063;39.614;8.814;2022-12-18T06:31:36;6.75;;;3.00;;
66270;SDS011;53063;39.614;8.814;2022-12-18T06:34:03;4.45;;;2.13;;
66270;SDS011;53063;39.614;8.814;2022-12-18T06:36:29;4.85;;;2.30;;
66270;SDS011;53063;39.614;8.814;2022-12-18T06:38:55;5.00;;;2.88;;
66270;SDS011;53063;39.614;8.814;2022-12-18T06:41:22;5.03;;;3.25;;
66270;SDS011;53063;39.614;8.814;2022-12-18T06:43:48;10.48;;;6.15;;
66270;SDS011;53063;39.614;8.814;2022-12-18T06:46:14;8.07;;;4.35;;
66270;SDS011;53063;39.614;8.814;2022-12-18T06:48:40;6.75;;;4.25;;
66270;SDS011;53063;39.614;8.814;2022-12-18T06:51:06;7.45;;;4.22;;
66270;SDS011;53063;39.614;8.814;2022-12-18T06:53:32;6.38;;;4.43;;
66270;SDS011;53063;39.614;8.814;2022-12-18T06:56:02;6.88;;;3.65;;
66270;SDS011;53063;39.614;8.814;2022-12-18T06:58:29;8.07;;;4.60;;
66270;SDS011;53063;39.614;8.814;2022-12-18T07:01:02;11.18;;;6.18;;
66270;SDS011;53063;39.614;8.814;2022-12-18T07:03:29;9.18;;;5.15;;
66270;SDS011;53063;39.614;8.814;2022-12-18T07:05:55;9.35;;;5.00;;
66270;SDS011;53063;39.614;8.814;2022-12-18T07:08:21;12.23;;;5.97;;
66270;SDS011;53063;39.614;8.814;2022-12-18T07:10:47;11.05;;;5.38;;
66270;SDS011;53063;39.614;8.814;2022-12-18T07:13:14;12.85;;;6.28;;
66270;SDS011;53063;39.614;8.814;2022-12-18T07:15:41;15.27;;;6.93;;
66270;SDS011;53063;39.614;8.814;2022-12-18T07:18:07;15.65;;;8.38;;
66270;SDS011;53063;39.614;8.814;2022-12-18T07:20:33;36.60;;;19.75;;
66270;SDS011;53063;39.614;8.814;2022-12-18T07:22:58;22.83;;;8.88;;
66270;SDS011;53063;39.614;8.814;2022-12-18T07:25:27;11.52;;;6.03;;
66270;SDS011;53063;39.614;8.814;2022-12-18T07:27:53;14.02;;;6.25;;
66270;SDS011;53063;39.614;8.814;2022-12-18T07:30:19;11.35;;;5.82;;
66270;SDS011;53063;39.614;8.814;2022-12-18T07:32:45;8.45;;;4.60;;
66270;SDS011;53063;39.614;8.814;2022-12-18T07:35:11;9.82;;;4.75;;
66270;SDS011;53063;39.614;8.814;2022-12-18T07:37:37;16.92;;;9.60;;
66270;SDS011;53063;39.614;8.814;2022-12-18T07:40:03;13.98;;;8.07;;
66270;SDS011;53063;39.614;8.814;2022-12-18T07:42:30;9.68;;;5.22;;
66270;SDS011;53063;39.614;8.814;2022-12-18T07:44:56;8.68;;;5.53;;
66270;SDS011;53063;39.614;8.814;2022-12-18T07:47:22;22.27;;;11.25;;
66270;SDS011;53063;39.614;8.814;2022-12-18T07:49:48;16.85;;;7.75;;
66270;SDS011;53063;39.614;8.814;2022-12-18T07:52:14;7.35;;;3.78;;
66270;SDS011;53063;39.614;8.814;2022-12-18T07:54:40;7.57;;;4.22;;
66270;SDS011;53063;39.614;8.814;2022-12-18T07:57:06;13.07;;;4.47;;
66270;SDS011;53063;39.614;8.814;2022-12-18T07:59:32;7.03;;;4.35;;
66270;SDS011;53063;39.614;8.814;2022-12-18T08:01:58;6.28;;;3.20;;
66270;SDS011;53063;39.614;8.814;2022-12-18T08:04:24;5.03;;;4.03;;
66270;SDS011;53063;39.614;8.814;2022-12-18T08:06:51;5.90;;;3.92;;
66270;SDS011;53063;39.614;8.814;2022-12-18T08:09:17;7.47;;;4.88;;
66270;SDS011;53063;39.614;8.814;2022-12-18T08:11:43;8.60;;;5.00;;
66270;SDS011;53063;39.614;8.814;2022-12-18T08:14:09;8.73;;;5.63;;
66270;SDS011;53063;39.614;8.814;2022-12-18T08:16:35;10.77;;;6.93;;
66270;SDS011;53063;39.614;8.814;2022-12-18T08:19:01;9.30;;;6.55;;
66270;SDS011;53063;39.614;8.814;2022-12-18T08:21:28;5.03;;;3.72;;
66270;SDS011;53063;39.614;8.814;2022-12-18T08:23:57;5.38;;;2.85;;
66270;SDS011;53063;39.614;8.814;2022-12-18T08:26:25;8.10;;;3.88;;
66270;SDS011;53063;39.614;8.814;2022-12-18T08:28:54;4.55;;;3.63;;
66270;SDS011;53063;39.614;8.814;2022-12-18T08:31:21;10.73;;;6.45;;
66270;SDS011;53063;39.614;8.814;2022-12-18T08:33:50;15.43;;;9.77;;
66270;SDS011;53063;39.614;8.814;2022-12-18T08:36:18;16.27;;;9.68;;
66270;SDS011;53063;39.614;8.814;2022-12-18T08:38:44;14.35;;;9.52;;
66270;SDS011;53063;39.614;8.814;2022-12-18T08:41:12;11.60;;;7.90;;
66270;SDS011;53063;39.614;8.814;2022-12-18T08:43:39;10.68;;;7.18;;
66270;SDS011;53063;39.614;8.814;2022-12-18T08:46:25;10.70;;;6.32;;
66270;SDS011;53063;39.614;8.814;2022-12-18T08:48:52;3.67;;;2.75;;
66270;SDS011;53063;39.614;8.814;2022-12-18T08:51:20;4.63;;;2.85;;
66270;SDS011;53063;39.614;8.814;2022-12-18T08:53:46;4.50;;;2.60;;
66270;SDS011;53063;39.614;8.814;2022-12-18T08:56:13;4.80;;;2.33;;
66270;SDS011;53063;39.614;8.814;2022-12-18T08:58:40;4.35;;;2.00;;
66270;SDS011;53063;39.614;8.814;2022-12-18T09:01:07;4.05;;;3.22;;
66270;SDS011;53063;39.614;8.814;2022-12-18T09:03:34;2.47;;;2.28;;
66270;SDS011;53063;39.614;8.814;2022-12-18T09:06:00;4.50;;;1.23;;
66270;SDS011;53063;39.614;8.814;2022-12-18T09:08:26;1.92;;;1.15;;
66270;SDS011;53063;39.614;8.814;2022-12-18T09:10:52;4.95;;;1.00;;
66270;SDS011;53063;39.614;8.814;2022-12-18T09:13:19;1.50;;;0.95;;
66270;SDS011;53063;39.614;8.814;2022-12-18T09:15:49;1.80;;;1.10;;
66270;SDS011;53063;39.614;8.814;2022-12-18T09:18:17;3.63;;;1.85;;
66270;SDS011;53063;39.614;8.814;2022-12-18T09:20:45;6.97;;;4.50;;
66270;SDS011;53063;39.614;8.814;2022-12-18T09:23:11;1.80;;;1.60;;
66270;SDS011;53063;39.614;8.814;2022-12-18T09:25:38;2.65;;;1.23;;
66270;SDS011;53063;39.614;8.814;2022-12-18T09:28:12;2.55;;;1.67;;
66270;SDS011;53063;39.614;8.814;2022-12-18T09:30:39;1.52;;;0.90;;
66270;SDS011;53063;39.614;8.814;2022-12-18T09:33:06;1.30;;;1.10;;
66270;SDS011;53063;39.614;8.814;2022-12-18T09:35:32;2.75;;;1.40;;
66270;SDS011;53063;39.614;8.814;2022-12-18T09:38:01;4.53;;;1.30;;
66270;SDS011;53063;39.614;8.814;2022-12-18T09:40:28;2.55;;;1.10;;
66270;SDS011;53063;39.614;8.814;2022-12-18T09:43:07;2.35;;;1.15;;
66270;SDS011;53063;39.614;8.814;2022-12-18T09:45:42;2.20;;;1.48;;
66270;SDS011;53063;39.614;8.814;2022-12-18T09:48:23;10.68;;;8.00;;
66270;SDS011;53063;39.614;8.814;2022-12-18T09:50:59;11.75;;;8.75;;
66270;SDS011;53063;39.614;8.814;2022-12-18T09:53:35;3.78;;;2.00;;
66270;SDS011;53063;39.614;8.814;2022-12-18T09:56:04;4.38;;;2.13;;
66270;SDS011;53063;39.614;8.814;2022-12-18T10:01:10;3.53;;;2.08;;
66270;SDS011;53063;39.614;8.814;2022-12-18T10:03:39;2.90;;;1.58;;
66270;SDS011;53063;39.614;8.814;2022-12-18T10:06:07;3.42;;;1.90;;
66270;SDS011;53063;39.614;8.814;2022-12-18T10:09:42;3.55;;;1.55;;
66270;SDS011;53063;39.614;8.814;2022-12-18T10:20:47;2.83;;;2.00;;
66270;SDS011;53063;39.614;8.814;2022-12-18T10:26:01;2.45;;;1.25;;
66270;SDS011;53063;39.614;8.814;2022-12-18T10:28:30;3.05;;;1.63;;
66270;SDS011;53063;39.614;8.814;2022-12-18T10:30:59;1.27;;;1.02;;
66270;SDS011;53063;39.614;8.814;2022-12-18T10:33:28;2.13;;;1.20;;
66270;SDS011;53063;39.614;8.814;2022-12-18T10:35:55;1.20;;;0.95;;
66270;SDS011;53063;39.614;8.814;2022-12-18T10:38:22;7.30;;;4.25;;
66270;SDS011;53063;39.614;8.814;2022-12-18T10:41:08;6.40;;;3.25;;
66270;SDS011;53063;39.614;8.814;2022-12-18T10:46:37;3.05;;;1.20;;
66270;SDS011;53063;39.614;8.814;2022-12-18T10:49:03;2.92;;;2.38;;
66270;SDS011;53063;39.614;8.814;2022-12-18T10:51:31;4.10;;;1.10;;
66270;SDS011;53063;39.614;8.814;2022-12-18T10:56:37;2.97;;;1.65;;
66270;SDS011;53063;39.614;8.814;2022-12-18T10:59:05;1.30;;;1.00;;
66270;SDS011;53063;39.614;8.814;2022-12-18T11:04:25;1.88;;;1.30;;
66270;SDS011;53063;39.614;8.814;2022-12-18T11:07:01;4.63;;;1.10;;
66270;SDS011;53063;39.614;8.814;2022-12-18T11:09:33;1.25;;;1.05;;
66270;SDS011;53063;39.614;8.814;2022-12-18T11:12:02;2.28;;;1.00;;
66270;SDS011;53063;39.614;8.814;2022-12-18T11:14:47;1.52;;;1.08;;
66270;SDS011;53063;39.614;8.814;2022-12-18T11:17:32;2.35;;;1.20;;
66270;SDS011;53063;39.614;8.814;2022-12-18T11:20:04;3.67;;;1.77;;
66270;SDS011;53063;39.614;8.814;2022-12-18T11:22:43;3.10;;;1.60;;
66270;SDS011;53063;39.614;8.814;2022-12-18T11:25:19;2.17;;;1.40;;
66270;SDS011;53063;39.614;8.814;2022-12-18T11:27:49;6.25;;;2.33;;
66270;SDS011;53063;39.614;8.814;2022-12-18T11:32:59;13.40;;;6.72;;
66270;SDS011;53063;39.614;8.814;2022-12-18T11:38:26;4.25;;;2.55;;
66270;SDS011;53063;39.614;8.814;2022-12-18T11:40:57;3.15;;;1.27;;
66270;SDS011;53063;39.614;8.814;2022-12-18T11:43:49;3.83;;;1.70;;
66270;SDS011;53063;39.614;8.814;2022-12-18T11:46:34;2.28;;;1.00;;
66270;SDS011;53063;39.614;8.814;2022-12-18T11:49:03;2.33;;;1.52;;
66270;SDS011;53063;39.614;8.814;2022-12-18T11:51:54;4.70;;;2.00;;
66270;SDS011;53063;39.614;8.814;2022-12-18T11:54:25;1.83;;;1.20;;
66270;SDS011;53063;39.614;8.814;2022-12-18T11:56:56;1.80;;;1.27;;
66270;SDS011;53063;39.614;8.814;2022-12-18T12:10:28;3.05;;;1.05;;
66270;SDS011;53063;39.614;8.814;2022-12-18T12:18:29;2.50;;;1.10;;
66270;SDS011;53063;39.614;8.814;2022-12-18T12:31:59;6.18;;;2.20;;
66270;SDS011;53063;39.614;8.814;2022-12-18T12:34:38;2.08;;;1.10;;
66270;SDS011;53063;39.614;8.814;2022-12-18T12:39:55;2.20;;;1.00;;
66270;SDS011;53063;39.614;8.814;2022-12-18T12:48:22;1.67;;;0.80;;
66270;SDS011;53063;39.614;8.814;2022-12-18T12:51:00;2.05;;;0.70;;
66270;SDS011;53063;39.614;8.814;2022-12-18T12:53:30;2.42;;;1.10;;
66270;SDS011;53063;39.614;8.814;2022-12-18T12:56:00;1.00;;;0.80;;
66270;SDS011;53063;39.614;8.814;2022-12-18T13:01:43;2.40;;;1.10;;
66270;SDS011;53063;39.614;8.814;2022-12-18T13:07:37;3.33;;;1.85;;
66270;SDS011;53063;39.614;8.814;2022-12-18T13:12:56;2.35;;;1.27;;
66270;SDS011;53063;39.614;8.814;2022-12-18T13:15:34;2.08;;;1.08;;
66270;SDS011;53063;39.614;8.814;2022-12-18T13:18:03;2.90;;;1.40;;
66270;SDS011;53063;39.614;8.814;2022-12-18T13:20:42;2.25;;;1.35;;
66270;SDS011;53063;39.614;8.814;2022-12-18T13:36:48;0.80;;;0.80;;
66270;SDS011;53063;39.614;8.814;2022-12-18T13:41:48;1.40;;;1.10;;
66270;SDS011;53063;39.614;8.814;2022-12-18T13:47:01;0.95;;;0.85;;
66270;SDS011;53063;39.614;8.814;2022-12-18T13:55:05;2.88;;;0.82;;
66270;SDS011;53063;39.614;8.814;2022-12-18T13:57:39;1.00;;;0.60;;
66270;SDS011;53063;39.614;8.814;2022-12-18T14:02:47;4.10;;;1.30;;
66270;SDS011;53063;39.614;8.814;2022-12-18T14:05:28;6.32;;;2.47;;
66270;SDS011;53063;39.614;8.814;2022-12-18T14:08:05;6.28;;;3.33;;
66270;SDS011;53063;39.614;8.814;2022-12-18T14:10:46;5.57;;;2.47;;
66270;SDS011;53063;39.614;8.814;2022-12-18T14:13:19;4.93;;;1.27;;
66270;SDS011;53063;39.614;8.814;2022-12-18T14:15:52;1.00;;;0.63;;
66270;SDS011;53063;39.614;8.814;2022-12-18T14:18:26;3.65;;;1.90;;
66270;SDS011;53063;39.614;8.814;2022-12-18T14:21:00;1.63;;;0.80;;
66270;SDS011;53063;39.614;8.814;2022-12-18T14:25:57;3.35;;;1.40;;
66270;SDS011;53063;39.614;8.814;2022-12-18T14:28:23;1.83;;;1.00;;
66270;SDS011;53063;39.614;8.814;2022-12-18T14:30:51;2.63;;;1.33;;
66270;SDS011;53063;39.614;8.814;2022-12-18T14:33:19;3.60;;;2.00;;
66270;SDS011;53063;39.614;8.814;2022-12-18T14:38:27;3.38;;;2.10;;
66270;SDS011;53063;39.614;8.814;2022-12-18T14:43:27;2.78;;;1.98;;
66270;SDS011;53063;39.614;8.814;2022-12-18T14:45:55;8.25;;;2.00;;
66270;SDS011;53063;39.614;8.814;2022-12-18T14:48:25;5.80;;;3.90;;
66270;SDS011;53063;39.614;8.814;2022-12-18T14:51:14;6.63;;;3.40;;
66270;SDS011;53063;39.614;8.814;2022-12-18T14:53:44;6.40;;;4.05;;
66270;SDS011;53063;39.614;8.814;2022-12-18T14:56:25;7.07;;;3.83;;
66270;SDS011;53063;39.614;8.814;2022-12-18T14:58:56;9.10;;;3.35;;
66270;SDS011;53063;39.614;8.814;2022-12-18T15:01:26;7.35;;;3.40;;
66270;SDS011;53063;39.614;8.814;2022-12-18T15:03:54;6.63;;;3.08;;
66270;SDS011;53063;39.614;8.814;2022-12-18T15:06:26;6.70;;;2.35;;
66270;SDS011;53063;39.614;8.814;2022-12-18T15:08:55;6.40;;;3.08;;
66270;SDS011;53063;39.614;8.814;2022-12-18T15:11:27;8.52;;;3.92;;
66270;SDS011;53063;39.614;8.814;2022-12-18T15:13:54;7.38;;;3.30;;
66270;SDS011;53063;39.614;8.814;2022-12-18T15:16:22;4.53;;;2.50;;
66270;SDS011;53063;39.614;8.814;2022-12-18T15:18:48;4.88;;;2.40;;
66270;SDS011;53063;39.614;8.814;2022-12-18T15:21:18;3.50;;;2.30;;
66270;SDS011;53063;39.614;8.814;2022-12-18T15:26:17;4.00;;;2.88;;
66270;SDS011;53063;39.614;8.814;2022-12-18T15:28:48;4.40;;;2.88;;
66270;SDS011;53063;39.614;8.814;2022-12-18T15:31:24;4.03;;;2.20;;
66270;SDS011;53063;39.614;8.814;2022-12-18T15:36:22;3.30;;;2.38;;
66270;SDS011;53063;39.614;8.814;2022-12-18T15:38:49;4.50;;;2.65;;
66270;SDS011;53063;39.614;8.814;2022-12-18T15:41:17;8.05;;;2.78;;
66270;SDS011;53063;39.614;8.814;2022-12-18T15:43:45;8.93;;;3.47;;
66270;SDS011;53063;39.614;8.814;2022-12-18T15:46:16;8.05;;;4.43;;
66270;SDS011;53063;39.614;8.814;2022-12-18T15:48:47;7.65;;;5.10;;
66270;SDS011;53063;39.614;8.814;2022-12-18T15:53:46;7.97;;;5.03;;
66270;SDS011;53063;39.614;8.814;2022-12-18T15:56:14;10.30;;;6.20;;
66270;SDS011;53063;39.614;8.814;2022-12-18T15:58:59;10.32;;;5.78;;
66270;SDS011;53063;39.614;8.814;2022-12-18T16:01:27;11.90;;;5.68;;
66270;SDS011;53063;39.614;8.814;2022-12-18T16:03:54;11.77;;;6.60;;
66270;SDS011;53063;39.614;8.814;2022-12-18T16:06:20;14.30;;;7.47;;
66270;SDS011;53063;39.614;8.814;2022-12-18T16:08:47;14.20;;;7.18;;
66270;SDS011;53063;39.614;8.814;2022-12-18T16:13:44;13.85;;;6.70;;
66270;SDS011;53063;39.614;8.814;2022-12-18T16:16:10;16.95;;;10.45;;
66270;SDS011;53063;39.614;8.814;2022-12-18T16:18:36;14.20;;;8.48;;
66270;SDS011;53063;39.614;8.814;2022-12-18T16:21:02;22.90;;;11.23;;
66270;SDS011;53063;39.614;8.814;2022-12-18T16:23:28;29.05;;;14.88;;
66270;SDS011;53063;39.614;8.814;2022-12-18T16:25:54;16.00;;;10.32;;
66270;SDS011;53063;39.614;8.814;2022-12-18T16:28:20;16.65;;;8.95;;
66270;SDS011;53063;39.614;8.814;2022-12-18T16:30:47;11.35;;;7.32;;
66270;SDS011;53063;39.614;8.814;2022-12-18T16:33:12;13.57;;;7.20;;
66270;SDS011;53063;39.614;8.814;2022-12-18T16:35:38;12.85;;;7.15;;
66270;SDS011;53063;39.614;8.814;2022-12-18T16:38:04;15.27;;;9.05;;
66270;SDS011;53063;39.614;8.814;2022-12-18T16:40:31;30.15;;;15.70;;
66270;SDS011;53063;39.614;8.814;2022-12-18T16:42:57;29.45;;;17.17;;
66270;SDS011;53063;39.614;8.814;2022-12-18T16:45:23;25.25;;;15.13;;
66270;SDS011;53063;39.614;8.814;2022-12-18T16:47:58;25.67;;;16.20;;
66270;SDS011;53063;39.614;8.814;2022-12-18T16:50:24;22.92;;;15.40;;
66270;SDS011;53063;39.614;8.814;2022-12-18T16:52:49;18.42;;;12.27;;
66270;SDS011;53063;39.614;8.814;2022-12-18T16:55:15;16.52;;;10.50;;
66270;SDS011;53063;39.614;8.814;2022-12-18T16:57:41;17.98;;;9.95;;
66270;SDS011;53063;39.614;8.814;2022-12-18T17:00:07;16.35;;;10.40;;
66270;SDS011;53063;39.614;8.814;2022-12-18T17:02:34;28.75;;;14.10;;
66270;SDS011;53063;39.614;8.814;2022-12-18T17:05:00;62.47;;;26.08;;
66270;SDS011;53063;39.614;8.814;2022-12-18T17:07:26;15.25;;;7.97;;
66270;SDS011;53063;39.614;8.814;2022-12-18T17:09:52;7.45;;;4.70;;
66270;SDS011;53063;39.614;8.814;2022-12-18T17:12:19;28.85;;;16.90;;
66270;SDS011;53063;39.614;8.814;2022-12-18T17:14:45;24.75;;;14.02;;
66270;SDS011;53063;39.614;8.814;2022-12-18T17:17:11;61.40;;;34.95;;
66270;SDS011;53063;39.614;8.814;2022-12-18T17:19:36;62.30;;;31.80;;